createdAt,value
2018-11-21T00:04:19.405Z,99956.80
2018-11-21T00:09:21.331Z,99958.13
2018-11-21T00:14:23.488Z,99930.05
2018-11-21T00:19:26.576Z,99921.75
2018-11-21T00:24:45.975Z,99936.83
2018-11-21T00:29:57.908Z,99939.44
2018-11-21T00:34:59.961Z,99951.16
2018-11-21T00:40:02.048Z,99976.25
2018-11-21T00:45:05.128Z,99968.56
2018-11-21T00:50:07.351Z,99994.60
2018-11-21T00:55:09.506Z,99997.18
2018-11-21T01:00:12.112Z,99989.86
2018-11-21T01:05:17.150Z,99996.08
2018-11-21T01:10:22.989Z,99995.95
2018-11-21T01:15:24.857Z,99994.66
2018-11-21T01:20:26.779Z,99996.02
2018-11-21T01:25:28.776Z,100001.33
2018-11-21T01:30:30.629Z,100012.09
2018-11-21T01:35:32.554Z,100021.75
2018-11-21T01:40:34.580Z,100022.27
2018-11-21T01:45:36.587Z,100026.38
2018-11-21T01:50:38.924Z,100033.36
2018-11-21T01:55:40.978Z,100038.45
2018-11-21T02:00:43.068Z,100039.25
2018-11-21T02:05:45.005Z,100044.16
2018-11-21T02:10:46.951Z,100046.95
2018-11-21T02:15:48.998Z,100054.14
2018-11-21T02:20:52.357Z,100066.08
2018-11-21T02:25:54.262Z,100063.86
2018-11-21T02:30:56.434Z,100069.72
2018-11-21T02:35:58.394Z,100071.53
2018-11-21T02:41:00.373Z,100081.73
2018-11-21T02:46:02.251Z,100087.96
2018-11-21T02:51:04.410Z,100088.92
2018-11-21T02:56:06.377Z,100079.78
2018-11-21T03:01:08.360Z,100076.06
2018-11-21T03:06:10.301Z,100072.98
2018-11-21T03:11:12.297Z,100072.78
2018-11-21T03:16:14.251Z,100079.39
2018-11-21T03:21:16.257Z,100082.02
2018-11-21T03:26:18.215Z,100083.52
2018-11-21T03:31:20.149Z,100098.52
2018-11-21T03:36:22.075Z,100106.80
2018-11-21T03:41:25.182Z,100122.80
2018-11-21T03:46:30.613Z,100130.67
2018-11-21T03:51:32.586Z,100129.88
2018-11-21T03:56:34.928Z,100152.40
2018-11-21T04:01:37.252Z,100165.47
2018-11-21T04:06:39.123Z,100172.52
2018-11-21T04:11:41.062Z,100158.41
2018-11-21T04:16:42.977Z,100148.63
2018-11-21T04:21:44.938Z,100146.67
2018-11-21T04:26:47.084Z,100146.31
2018-11-21T04:31:49.268Z,100150.84
2018-11-21T04:36:51.142Z,100168.66
2018-11-21T04:41:53.416Z,100172.88
2018-11-21T04:46:55.333Z,100179.57
2018-11-21T04:51:57.604Z,100186.41
2018-11-21T04:56:59.539Z,100181.48
2018-11-21T05:02:01.398Z,100186.23
2018-11-21T05:07:03.436Z,100180.34
2018-11-21T05:12:05.695Z,100168.05
2018-11-21T05:17:07.555Z,100186.53
2018-11-21T05:22:09.679Z,100192.69
2018-11-21T05:27:11.567Z,100198.25
2018-11-21T05:32:13.471Z,100218.75
2018-11-21T05:37:15.454Z,100217.22
2018-11-21T05:42:17.406Z,100231.93
2018-11-21T05:47:19.353Z,100238.36
2018-11-21T05:52:21.266Z,100247.02
2018-11-21T05:57:23.217Z,100245.65
2018-11-21T06:02:25.114Z,100242.84
2018-11-21T06:07:26.993Z,100245.20
2018-11-21T06:12:28.965Z,100246.52
2018-11-21T06:17:30.928Z,100244.38
2018-11-21T06:22:32.895Z,100233.02
2018-11-21T06:27:34.868Z,100251.22
2018-11-21T06:32:36.772Z,100270.55
2018-11-21T06:37:39.206Z,100281.42
2018-11-21T06:42:51.529Z,100279.73
2018-11-21T06:47:53.526Z,100288.42
2018-11-21T06:52:56.614Z,100296.41
2018-11-21T06:57:58.536Z,100308.52
2018-11-21T07:03:00.472Z,100320.48
2018-11-21T07:08:02.432Z,100335.41
2018-11-21T07:13:10.990Z,100344.52
2018-11-21T07:18:08.393Z,100363.36
2018-11-21T07:23:10.347Z,100354.84
2018-11-21T07:28:13.054Z,100371.48
2018-11-21T07:33:14.251Z,100369.16
2018-11-21T07:38:16.916Z,100372.03
2018-11-21T07:43:18.886Z,100380.68
2018-11-21T07:48:20.937Z,100382.95
2018-11-21T07:53:22.863Z,100385.44
2018-11-21T07:58:25.690Z,100381.09
2018-11-21T08:03:35.532Z,100383.89
2018-11-21T08:09:12.347Z,100384.66
2018-11-21T08:14:33.897Z,100396.53
2018-11-21T08:19:55.361Z,100402.41
2018-11-21T08:25:17.095Z,100399.62
2018-11-21T08:30:19.017Z,100400.03
2018-11-21T08:35:21.292Z,100404.41
2018-11-21T08:40:23.263Z,100412.12
2018-11-21T08:45:25.405Z,100418.14
2018-11-21T08:50:27.476Z,100429.28
2018-11-21T08:55:29.305Z,100429.33
2018-11-21T09:00:31.304Z,100427.65
2018-11-21T09:05:33.274Z,100428.09
2018-11-21T09:15:36.847Z,100433.44
2018-11-21T09:20:38.834Z,100422.52
2018-11-21T09:25:40.733Z,100428.50
2018-11-21T09:30:42.642Z,100444.27
2018-11-21T09:35:44.800Z,100437.44
2018-11-21T09:40:46.723Z,100430.67
2018-11-21T09:45:48.687Z,100435.06
2018-11-21T09:50:51.069Z,100432.79
2018-11-21T09:55:53.031Z,100431.22
2018-11-21T10:01:31.549Z,100435.97
2018-11-21T10:06:36.134Z,100427.55
2018-11-21T10:11:38.125Z,100437.06
2018-11-21T10:16:40.049Z,100452.86
2018-11-21T10:21:42.562Z,100461.98
2018-11-21T10:26:44.623Z,100462.91
2018-11-21T10:31:46.984Z,100462.69
2018-11-21T10:36:49.096Z,100468.76
2018-11-21T10:41:50.956Z,100464.45
2018-11-21T10:46:53.207Z,100476.23
2018-11-21T10:51:55.259Z,100484.75
2018-11-21T10:56:57.339Z,100479.88
2018-11-21T11:02:17.840Z,100485.55
2018-11-21T11:07:39.635Z,100480.05
2018-11-21T11:13:03.238Z,100478.28
2018-11-21T11:18:21.039Z,100482.41
2018-11-21T11:24:00.856Z,100484.98
2018-11-21T11:29:25.440Z,100477.44
2018-11-21T11:34:46.951Z,100462.78
2018-11-21T11:40:11.415Z,100470.09
2018-11-21T11:45:31.687Z,100468.67
2018-11-21T11:50:56.008Z,100477.02
2018-11-21T11:56:16.248Z,100470.78
2018-11-21T12:01:36.336Z,100473.19
2018-11-21T12:07:04.021Z,100459.55
2018-11-21T12:12:40.517Z,100458.17
2018-11-21T12:18:08.051Z,100458.23
2018-11-21T12:23:32.162Z,100454.27
2018-11-21T12:29:02.680Z,100455.71
2018-11-21T12:34:30.358Z,100451.53
2018-11-21T12:39:40.278Z,100458.80
2018-11-21T12:45:00.232Z,100458.30
2018-11-21T12:50:33.957Z,100451.77
2018-11-21T12:56:01.159Z,100450.95
2018-11-21T13:01:11.745Z,100450.50
2018-11-21T13:06:27.660Z,100454.85
2018-11-21T13:11:48.031Z,100461.83
2018-11-21T13:17:12.806Z,100461.72
2018-11-21T13:22:32.690Z,100464.70
2018-11-21T13:27:54.244Z,100458.64
2018-11-21T13:33:18.411Z,100450.56
2018-11-21T13:38:42.926Z,100455.71
2018-11-21T13:43:59.117Z,100461.49
2018-11-21T13:49:23.496Z,100462.55
2018-11-21T13:54:48.276Z,100476.28
2018-11-21T13:59:50.392Z,100481.43
2018-11-21T14:04:52.342Z,100481.85
2018-11-21T14:09:54.306Z,100482.64
2018-11-21T14:14:56.597Z,100488.25
2018-11-21T14:19:58.662Z,100492.90
2018-11-21T14:25:00.725Z,100496.78
2018-11-21T14:30:03.430Z,100494.05
2018-11-21T14:35:08.451Z,100498.86
2018-11-21T14:40:12.458Z,100501.55
2018-11-21T14:45:16.595Z,100512.05
2018-11-21T14:50:23.424Z,100511.28
2018-11-21T14:55:25.518Z,100520.21
2018-11-21T15:00:27.455Z,100532.36
2018-11-21T15:05:29.389Z,100542.47
2018-11-21T15:10:34.489Z,100553.52
2018-11-21T15:15:37.588Z,100556.30
2018-11-21T15:20:39.884Z,100576.99
2018-11-21T15:25:42.874Z,100579.17
2018-11-21T15:30:46.019Z,100575.78
2018-11-21T15:35:48.131Z,100573.80
2018-11-21T15:40:50.484Z,100570.91
2018-11-21T15:45:55.106Z,100576.28
2018-11-21T15:50:58.887Z,100578.52
2018-11-21T15:56:01.656Z,100578.62
2018-11-21T16:01:04.482Z,100584.34
2018-11-21T16:06:07.805Z,100574.67
2018-11-21T16:11:10.723Z,100582.72
2018-11-21T16:16:13.001Z,100584.96
2018-11-21T16:21:16.125Z,100592.45
2018-11-21T16:26:19.733Z,100604.67
2018-11-21T16:31:21.655Z,100604.72
2018-11-21T16:36:27.213Z,100625.42
2018-11-21T16:41:25.879Z,100617.42
2018-11-21T16:46:27.807Z,100626.70
2018-11-21T16:51:29.787Z,100628.83
2018-11-21T16:56:31.915Z,100628.83
2018-11-21T17:01:34.320Z,100626.66
2018-11-21T17:06:36.323Z,100636.73
2018-11-21T17:11:38.253Z,100635.05
2018-11-21T17:16:40.210Z,100631.06
2018-11-21T17:21:42.585Z,100637.69
2018-11-21T17:26:44.620Z,100630.75
2018-11-21T17:31:46.752Z,100636.94
2018-11-21T17:36:50.284Z,100632.58
2018-11-21T17:41:52.283Z,100636.11
2018-11-21T17:46:54.340Z,100640.89
2018-11-21T17:57:06.442Z,100637.37
2018-11-21T18:02:09.341Z,100644.37
2018-11-21T18:07:11.388Z,100642.95
2018-11-21T18:12:13.305Z,100646.16
2018-11-21T18:17:15.803Z,100649.69
2018-11-21T18:22:18.062Z,100646.61
2018-11-21T18:27:20.153Z,100660.17
2018-11-21T18:32:22.220Z,100665.91
2018-11-21T18:37:24.127Z,100662.85
2018-11-21T18:42:26.122Z,100665.13
2018-11-21T18:47:28.178Z,100665.86
2018-11-21T18:52:30.216Z,100655.06
2018-11-21T18:57:54.430Z,100671.13
2018-11-21T19:02:56.398Z,100680.84
2018-11-21T19:07:58.418Z,100677.66
2018-11-21T19:13:00.310Z,100696.50
2018-11-21T19:18:02.257Z,100691.69
2018-11-21T19:23:04.861Z,100689.86
2018-11-21T19:28:07.140Z,100674.25
2018-11-21T19:33:09.513Z,100695.13
2018-11-21T19:38:11.750Z,100699.91
2018-11-21T19:43:13.814Z,100700.04
2018-11-21T19:48:15.887Z,100700.05
2018-11-21T19:53:17.879Z,100698.73
2018-11-21T19:58:20.187Z,100702.13
2018-11-21T20:03:22.226Z,100700.95
2018-11-21T20:08:24.853Z,100701.91
2018-11-21T20:13:26.875Z,100688.24
2018-11-21T20:18:28.909Z,100694.78
2018-11-21T20:23:30.834Z,100686.38
2018-11-21T20:28:49.527Z,100689.05
2018-11-21T20:33:51.819Z,100693.09
2018-11-21T20:38:53.874Z,100694.83
2018-11-21T20:43:57.366Z,100697.82
2018-11-21T20:49:11.445Z,100698.78
2018-11-21T20:54:12.909Z,100695.77
2018-11-21T20:59:15.353Z,100696.20
2018-11-21T21:04:17.329Z,100697.46
2018-11-21T21:09:19.792Z,100702.27
2018-11-21T21:14:23.021Z,100705.87
2018-11-21T21:19:26.216Z,100696.64
2018-11-21T21:24:29.224Z,100700.14
2018-11-21T21:29:31.808Z,100698.91
2018-11-21T21:34:34.628Z,100700.59
